ECV54J EHEH-LUKK
Flight info
| Callsign | ECV54J |
|---|---|
| Flight time | 2h 21m |
| Altitude | 35000 |
| Route | VELNI2J VELNI Y869 SUMOP DCT SUVUT L620 PIKIB DCT OMELO DCT MAKAL DCT TAKOS DCT KARIL DCT UNIRA UNIRA6A |
| Aircraft | A320/M-SDE3FGHIRWY/LB1 |
Departure
| Time | 2026-05-05 13:48 |
|---|---|
| Airport | Eindhoven Airport (EHEH) |
Arrival
| Time | 2026-05-05 16:09 |
|---|---|
| Airport | Chişinău International Airport (LUKK) |
| Time | Latitude | Longitude | Altitude | Speed | Heading |
|---|---|---|---|---|---|
| 2026-05-05 13:14 | 51.45550 | 5.38704 | 67 ft | 0 kts | 125° |
| 2026-05-05 13:35 | 51.45551 | 5.38703 | 72 ft | 2 kts | 125° |
| 2026-05-05 13:35 | 51.45561 | 5.38680 | 65 ft | 2 kts | 125° |
| 2026-05-05 13:35 | 51.45570 | 5.38659 | 64 ft | 2 kts | 125° |
| 2026-05-05 13:36 | 51.45580 | 5.38636 | 62 ft | 2 kts | 125° |
| 2026-05-05 13:36 | 51.45591 | 5.38615 | 67 ft | 2 kts | 111° |
| 2026-05-05 13:36 | 51.45591 | 5.38590 | 67 ft | 1 kts | 43° |
| 2026-05-05 13:36 | 51.45591 | 5.38589 | 67 ft | 0 kts | 40° |
| 2026-05-05 13:39 | 51.45594 | 5.38597 | 73 ft | 1 kts | 49° |
| 2026-05-05 13:39 | 51.45596 | 5.38598 | 65 ft | 1 kts | 41° |
| 2026-05-05 13:40 | 51.45618 | 5.38626 | 68 ft | 5 kts | 38° |
| 2026-05-05 13:40 | 51.45649 | 5.38669 | 66 ft | 6 kts | 41° |
| 2026-05-05 13:40 | 51.45687 | 5.38715 | 72 ft | 8 kts | 34° |
| 2026-05-05 13:40 | 51.45739 | 5.38770 | 74 ft | 10 kts | 33° |
| 2026-05-05 13:41 | 51.45796 | 5.38761 | 69 ft | 9 kts | 311° |
| 2026-05-05 13:41 | 51.45833 | 5.38672 | 70 ft | 10 kts | 309° |
| 2026-05-05 13:41 | 51.45872 | 5.38590 | 77 ft | 9 kts | 306° |
| 2026-05-05 13:41 | 51.45913 | 5.38502 | 77 ft | 11 kts | 306° |
| 2026-05-05 13:42 | 51.45959 | 5.38402 | 77 ft | 7 kts | 306° |
| 2026-05-05 13:42 | 51.45987 | 5.38338 | 67 ft | 7 kts | 303° |
| 2026-05-05 13:42 | 51.45980 | 5.38267 | 68 ft | 8 kts | 218° |
| 2026-05-05 13:42 | 51.45928 | 5.38197 | 77 ft | 12 kts | 217° |
| 2026-05-05 13:43 | 51.45842 | 5.38100 | 74 ft | 17 kts | 215° |
| 2026-05-05 13:43 | 51.45741 | 5.37987 | 74 ft | 19 kts | 215° |
| 2026-05-05 13:43 | 51.45624 | 5.37856 | 82 ft | 21 kts | 215° |
| 2026-05-05 13:43 | 51.45496 | 5.37712 | 81 ft | 24 kts | 215° |
| 2026-05-05 13:44 | 51.45349 | 5.37547 | 80 ft | 28 kts | 215° |
| 2026-05-05 13:44 | 51.45183 | 5.37363 | 73 ft | 30 kts | 215° |
| 2026-05-05 13:44 | 51.45036 | 5.37198 | 83 ft | 25 kts | 215° |
| 2026-05-05 13:44 | 51.44891 | 5.37036 | 87 ft | 26 kts | 215° |
| 2026-05-05 13:45 | 51.44739 | 5.36864 | 83 ft | 28 kts | 215° |
| 2026-05-05 13:45 | 51.44580 | 5.36685 | 71 ft | 26 kts | 214° |
| 2026-05-05 13:45 | 51.44453 | 5.36543 | 70 ft | 22 kts | 216° |
| 2026-05-05 13:45 | 51.44324 | 5.36397 | 85 ft | 22 kts | 214° |
| 2026-05-05 13:46 | 51.44204 | 5.36263 | 84 ft | 21 kts | 214° |
| 2026-05-05 13:46 | 51.44114 | 5.36163 | 84 ft | 12 kts | 214° |
| 2026-05-05 13:46 | 51.44045 | 5.36086 | 82 ft | 12 kts | 215° |
| 2026-05-05 13:46 | 51.43969 | 5.36110 | 79 ft | 13 kts | 129° |
| 2026-05-05 13:47 | 51.43952 | 5.36257 | 79 ft | 15 kts | 55° |
| 2026-05-05 13:47 | 51.43995 | 5.36314 | 80 ft | 0 kts | 35° |
| 2026-05-05 13:47 | 51.44019 | 5.36342 | 81 ft | 23 kts | 33° |
| 2026-05-05 13:47 | 51.44350 | 5.36711 | 67 ft | 89 kts | 35° |
| 2026-05-05 13:48 | 51.44999 | 5.37435 | 69 ft | 137 kts | 35° |
| 2026-05-05 13:48 | 51.45876 | 5.38417 | 238 ft | 161 kts | 38° |
| 2026-05-05 13:48 | 51.46791 | 5.39445 | 895 ft | 160 kts | 39° |
| 2026-05-05 13:48 | 51.47683 | 5.40465 | 1599 ft | 155 kts | 39° |
| 2026-05-05 13:49 | 51.48588 | 5.41452 | 2020 ft | 164 kts | 39° |
| 2026-05-05 13:49 | 51.49576 | 5.42531 | 2267 ft | 181 kts | 39° |
| 2026-05-05 13:49 | 51.50653 | 5.43749 | 2561 ft | 196 kts | 42° |
| 2026-05-05 13:49 | 51.51386 | 5.45576 | 3013 ft | 204 kts | 86° |
| 2026-05-05 13:50 | 51.51094 | 5.47824 | 3519 ft | 213 kts | 115° |
| 2026-05-05 13:50 | 51.50533 | 5.50120 | 3769 ft | 234 kts | 104° |
| 2026-05-05 13:50 | 51.50100 | 5.52655 | 4582 ft | 232 kts | 100° |
| 2026-05-05 13:50 | 51.49720 | 5.55181 | 5332 ft | 234 kts | 101° |
| 2026-05-05 13:51 | 51.49340 | 5.57733 | 6113 ft | 237 kts | 102° |
| 2026-05-05 13:51 | 51.48974 | 5.60430 | 6506 ft | 259 kts | 101° |
| 2026-05-05 13:51 | 51.48604 | 5.63352 | 7024 ft | 272 kts | 101° |
| 2026-05-05 13:51 | 51.48437 | 5.66348 | 7756 ft | 275 kts | 86° |
| 2026-05-05 13:52 | 51.48686 | 5.69403 | 8535 ft | 278 kts | 82° |
| 2026-05-05 13:52 | 51.48953 | 5.72486 | 9304 ft | 281 kts | 82° |
| 2026-05-05 13:52 | 51.49208 | 5.75613 | 10018 ft | 285 kts | 82° |
| 2026-05-05 13:52 | 51.49471 | 5.78903 | 10362 ft | 304 kts | 83° |
| 2026-05-05 13:53 | 51.49743 | 5.82344 | 10540 ft | 325 kts | 83° |
| 2026-05-05 13:53 | 51.50031 | 5.86001 | 11016 ft | 334 kts | 83° |
| 2026-05-05 13:53 | 51.50322 | 5.89700 | 11678 ft | 336 kts | 82° |
| 2026-05-05 13:53 | 51.50615 | 5.93446 | 12342 ft | 339 kts | 82° |
| 2026-05-05 13:54 | 51.50909 | 5.97218 | 12953 ft | 342 kts | 82° |
| 2026-05-05 13:54 | 51.51204 | 6.01026 | 13619 ft | 345 kts | 82° |
| 2026-05-05 13:54 | 51.51500 | 6.04878 | 14193 ft | 348 kts | 83° |
| 2026-05-05 13:54 | 51.51797 | 6.08756 | 14732 ft | 352 kts | 83° |
| 2026-05-05 13:55 | 51.52096 | 6.12672 | 15292 ft | 354 kts | 83° |
| 2026-05-05 13:55 | 51.52395 | 6.16619 | 15790 ft | 359 kts | 84° |
| 2026-05-05 13:55 | 51.52699 | 6.20613 | 16301 ft | 363 kts | 84° |
| 2026-05-05 13:55 | 51.53066 | 6.24641 | 16828 ft | 367 kts | 82° |
| 2026-05-05 13:56 | 51.53499 | 6.28707 | 17261 ft | 373 kts | 82° |
| 2026-05-05 13:56 | 51.53972 | 6.32838 | 17703 ft | 379 kts | 81° |
| 2026-05-05 13:56 | 51.54459 | 6.37021 | 18216 ft | 383 kts | 82° |
| 2026-05-05 13:56 | 51.54944 | 6.41247 | 18688 ft | 386 kts | 81° |
| 2026-05-05 13:57 | 51.55419 | 6.45511 | 19167 ft | 389 kts | 82° |
| 2026-05-05 13:57 | 51.55883 | 6.49811 | 19676 ft | 392 kts | 82° |
| 2026-05-05 13:57 | 51.56341 | 6.54143 | 20180 ft | 395 kts | 82° |
| 2026-05-05 13:57 | 51.56693 | 6.58535 | 20648 ft | 397 kts | 89° |
| 2026-05-05 13:58 | 51.56628 | 6.62966 | 21120 ft | 398 kts | 96° |
| 2026-05-05 13:58 | 51.56460 | 6.67423 | 21601 ft | 401 kts | 96° |
| 2026-05-05 13:58 | 51.56293 | 6.71910 | 22060 ft | 404 kts | 96° |
| 2026-05-05 13:58 | 51.56128 | 6.76434 | 22497 ft | 407 kts | 96° |
| 2026-05-05 13:59 | 51.55788 | 6.85646 | 23336 ft | 414 kts | 96° |
| 2026-05-05 13:59 | 51.55613 | 6.90254 | 23698 ft | 417 kts | 96° |
| 2026-05-05 14:00 | 51.55249 | 6.99613 | 24406 ft | 423 kts | 97° |
| 2026-05-05 14:00 | 51.55126 | 7.02752 | 24634 ft | 425 kts | 97° |
| 2026-05-05 14:00 | 51.54878 | 7.09108 | 25090 ft | 428 kts | 97° |
| 2026-05-05 14:00 | 51.54687 | 7.13898 | 25423 ft | 431 kts | 97° |
| 2026-05-05 14:01 | 51.54491 | 7.18707 | 25761 ft | 433 kts | 97° |
| 2026-05-05 14:01 | 51.54293 | 7.23549 | 26092 ft | 436 kts | 97° |
| 2026-05-05 14:01 | 51.54093 | 7.28426 | 26392 ft | 439 kts | 97° |
| 2026-05-05 14:01 | 51.53890 | 7.33334 | 26693 ft | 442 kts | 97° |
| 2026-05-05 14:02 | 51.53686 | 7.38271 | 27009 ft | 444 kts | 97° |
| 2026-05-05 14:02 | 51.53478 | 7.43240 | 27322 ft | 447 kts | 97° |
| 2026-05-05 14:02 | 51.53266 | 7.48232 | 27628 ft | 449 kts | 97° |
| 2026-05-05 14:02 | 51.53046 | 7.53257 | 27930 ft | 452 kts | 97° |
| 2026-05-05 14:03 | 51.52820 | 7.58304 | 28237 ft | 454 kts | 97° |
| 2026-05-05 14:03 | 51.52595 | 7.63309 | 28540 ft | 457 kts | 97° |
| 2026-05-05 14:03 | 51.52366 | 7.68407 | 28826 ft | 459 kts | 97° |
| 2026-05-05 14:03 | 51.52137 | 7.73518 | 29209 ft | 459 kts | 98° |
| 2026-05-05 14:04 | 51.51908 | 7.78633 | 29612 ft | 459 kts | 98° |
| 2026-05-05 14:04 | 51.51676 | 7.83755 | 30008 ft | 459 kts | 98° |
| 2026-05-05 14:04 | 51.51442 | 7.88858 | 30370 ft | 459 kts | 98° |
| 2026-05-05 14:04 | 51.51205 | 7.93966 | 30750 ft | 458 kts | 98° |
| 2026-05-05 14:05 | 51.50965 | 7.99063 | 31152 ft | 457 kts | 98° |
| 2026-05-05 14:05 | 51.50723 | 8.04145 | 31531 ft | 456 kts | 99° |
| 2026-05-05 14:05 | 51.50477 | 8.09223 | 31910 ft | 456 kts | 99° |
| 2026-05-05 14:05 | 51.50231 | 8.14280 | 32297 ft | 455 kts | 99° |
| 2026-05-05 14:06 | 51.49983 | 8.19335 | 32681 ft | 454 kts | 99° |
| 2026-05-05 14:06 | 51.49734 | 8.24374 | 33079 ft | 452 kts | 99° |
| 2026-05-05 14:06 | 51.49483 | 8.29399 | 33458 ft | 452 kts | 100° |
| 2026-05-05 14:06 | 51.49232 | 8.34414 | 33859 ft | 451 kts | 100° |
| 2026-05-05 14:07 | 51.48978 | 8.39435 | 34208 ft | 451 kts | 100° |
| 2026-05-05 14:07 | 51.48722 | 8.44443 | 34530 ft | 450 kts | 100° |
| 2026-05-05 14:07 | 51.48462 | 8.49439 | 34784 ft | 451 kts | 100° |
| 2026-05-05 14:07 | 51.48199 | 8.54476 | 34855 ft | 454 kts | 100° |
| 2026-05-05 14:08 | 51.47655 | 8.64671 | 34861 ft | 462 kts | 100° |
| 2026-05-05 14:08 | 51.47103 | 8.74979 | 34861 ft | 466 kts | 100° |
| 2026-05-05 14:09 | 51.46538 | 8.85360 | 34854 ft | 467 kts | 100° |
| 2026-05-05 14:09 | 51.45971 | 8.95738 | 34846 ft | 467 kts | 100° |
| 2026-05-05 14:10 | 51.45394 | 9.06120 | 34843 ft | 468 kts | 100° |
| 2026-05-05 14:10 | 51.44803 | 9.16507 | 34839 ft | 467 kts | 100° |
| 2026-05-05 14:11 | 51.44201 | 9.26818 | 34837 ft | 467 kts | 101° |
| 2026-05-05 14:11 | 51.43587 | 9.37179 | 34845 ft | 468 kts | 100° |
| 2026-05-05 14:12 | 51.42964 | 9.47565 | 34840 ft | 469 kts | 100° |
| 2026-05-05 14:12 | 51.42329 | 9.57964 | 34841 ft | 469 kts | 101° |
| 2026-05-05 14:13 | 51.41689 | 9.68373 | 34820 ft | 470 kts | 100° |
| 2026-05-05 14:13 | 51.41040 | 9.78807 | 34822 ft | 471 kts | 100° |
| 2026-05-05 14:14 | 51.40490 | 9.87477 | 34824 ft | 471 kts | 101° |
| 2026-05-05 14:14 | 51.39816 | 9.97899 | 34828 ft | 471 kts | 101° |
| 2026-05-05 14:15 | 51.39136 | 10.08344 | 34831 ft | 471 kts | 101° |
| 2026-05-05 14:15 | 51.38454 | 10.18776 | 34828 ft | 472 kts | 100° |
| 2026-05-05 14:16 | 51.37762 | 10.29229 | 34836 ft | 472 kts | 101° |
| 2026-05-05 14:16 | 51.37049 | 10.39663 | 34841 ft | 472 kts | 101° |
| 2026-05-05 14:17 | 51.36328 | 10.50089 | 34847 ft | 472 kts | 101° |
| 2026-05-05 14:17 | 51.35600 | 10.60523 | 34840 ft | 472 kts | 101° |
| 2026-05-05 14:18 | 51.34869 | 10.70947 | 34852 ft | 471 kts | 101° |
| 2026-05-05 14:18 | 51.34129 | 10.81366 | 34855 ft | 471 kts | 101° |
| 2026-05-05 14:19 | 51.33377 | 10.91764 | 34856 ft | 470 kts | 101° |
| 2026-05-05 14:19 | 51.32614 | 11.02073 | 34857 ft | 470 kts | 101° |
| 2026-05-05 14:20 | 51.31839 | 11.12516 | 34843 ft | 470 kts | 101° |
| 2026-05-05 14:20 | 51.31060 | 11.22901 | 34847 ft | 470 kts | 101° |
| 2026-05-05 14:21 | 51.30269 | 11.33277 | 34850 ft | 471 kts | 101° |
| 2026-05-05 14:21 | 51.29478 | 11.43593 | 34853 ft | 470 kts | 102° |
| 2026-05-05 14:22 | 51.28006 | 11.53679 | 34841 ft | 465 kts | 110° |
| 2026-05-05 14:22 | 51.26291 | 11.63728 | 34839 ft | 466 kts | 110° |
| 2026-05-05 14:23 | 51.24602 | 11.73739 | 34837 ft | 467 kts | 109° |
| 2026-05-05 14:23 | 51.22917 | 11.83755 | 34841 ft | 467 kts | 110° |
| 2026-05-05 14:24 | 51.21214 | 11.93755 | 34846 ft | 468 kts | 110° |
| 2026-05-05 14:24 | 51.19500 | 12.03770 | 34826 ft | 468 kts | 109° |
| 2026-05-05 14:25 | 51.17776 | 12.13783 | 34821 ft | 468 kts | 110° |
| 2026-05-05 14:25 | 51.16050 | 12.23753 | 34852 ft | 467 kts | 110° |
| 2026-05-05 14:26 | 51.14306 | 12.33723 | 34854 ft | 466 kts | 110° |
| 2026-05-05 14:26 | 51.12546 | 12.43657 | 34832 ft | 466 kts | 110° |
| 2026-05-05 14:27 | 51.10782 | 12.53568 | 34844 ft | 465 kts | 109° |
| 2026-05-05 14:27 | 51.09010 | 12.63471 | 34847 ft | 465 kts | 110° |
| 2026-05-05 14:28 | 51.07232 | 12.73358 | 34846 ft | 465 kts | 110° |
| 2026-05-05 14:28 | 51.05446 | 12.83231 | 34840 ft | 464 kts | 110° |
| 2026-05-05 14:29 | 51.03657 | 12.93082 | 34834 ft | 464 kts | 109° |
| 2026-05-05 14:29 | 51.01856 | 13.02917 | 34840 ft | 463 kts | 110° |
| 2026-05-05 14:30 | 51.00045 | 13.12725 | 34842 ft | 463 kts | 110° |
| 2026-05-05 14:30 | 50.98231 | 13.22536 | 34842 ft | 463 kts | 110° |
| 2026-05-05 14:31 | 50.96429 | 13.32260 | 34836 ft | 463 kts | 109° |
| 2026-05-05 14:31 | 50.94646 | 13.42075 | 34840 ft | 463 kts | 108° |
| 2026-05-05 14:32 | 50.92902 | 13.51904 | 34842 ft | 463 kts | 109° |
| 2026-05-05 14:32 | 50.91099 | 13.61692 | 34842 ft | 462 kts | 109° |
| 2026-05-05 14:33 | 50.89251 | 13.71433 | 34838 ft | 462 kts | 110° |
| 2026-05-05 14:33 | 50.87394 | 13.81181 | 34836 ft | 462 kts | 109° |
| 2026-05-05 14:34 | 50.85536 | 13.90918 | 34834 ft | 462 kts | 110° |
| 2026-05-05 14:34 | 50.83525 | 14.00564 | 34829 ft | 459 kts | 117° |
| 2026-05-05 14:35 | 50.80492 | 14.09460 | 34828 ft | 456 kts | 123° |
| 2026-05-05 14:35 | 50.77383 | 14.18198 | 34808 ft | 456 kts | 122° |
| 2026-05-05 14:36 | 50.74269 | 14.26959 | 34803 ft | 457 kts | 122° |
| 2026-05-05 14:36 | 50.71152 | 14.35717 | 34801 ft | 458 kts | 122° |
| 2026-05-05 14:37 | 50.68027 | 14.44462 | 34810 ft | 458 kts | 122° |
| 2026-05-05 14:37 | 50.64889 | 14.53209 | 34801 ft | 458 kts | 123° |
| 2026-05-05 14:38 | 50.61741 | 14.61926 | 34798 ft | 458 kts | 123° |
| 2026-05-05 14:38 | 50.58586 | 14.70644 | 34787 ft | 459 kts | 123° |
| 2026-05-05 14:39 | 50.55419 | 14.79368 | 34789 ft | 459 kts | 123° |
| 2026-05-05 14:39 | 50.52247 | 14.88093 | 34789 ft | 460 kts | 123° |
| 2026-05-05 14:40 | 50.49069 | 14.96799 | 34796 ft | 460 kts | 123° |
| 2026-05-05 14:40 | 50.45882 | 15.05510 | 34786 ft | 460 kts | 123° |
| 2026-05-05 14:41 | 50.42710 | 15.14143 | 34789 ft | 460 kts | 123° |
| 2026-05-05 14:41 | 50.39491 | 15.22880 | 34788 ft | 460 kts | 123° |
| 2026-05-05 14:42 | 50.36282 | 15.31541 | 34791 ft | 459 kts | 123° |
| 2026-05-05 14:42 | 50.33065 | 15.40186 | 34787 ft | 459 kts | 123° |
| 2026-05-05 14:43 | 50.29865 | 15.48763 | 34788 ft | 460 kts | 123° |
| 2026-05-05 14:43 | 50.26647 | 15.57384 | 34789 ft | 459 kts | 123° |
| 2026-05-05 14:44 | 50.23419 | 15.65994 | 34809 ft | 459 kts | 123° |
| 2026-05-05 14:44 | 50.20182 | 15.74579 | 34796 ft | 459 kts | 123° |
| 2026-05-05 14:45 | 50.16944 | 15.83156 | 34788 ft | 459 kts | 123° |
| 2026-05-05 14:45 | 50.13699 | 15.91734 | 34790 ft | 459 kts | 123° |
| 2026-05-05 14:46 | 50.10447 | 16.00294 | 34806 ft | 459 kts | 123° |
| 2026-05-05 14:46 | 50.07183 | 16.08855 | 34809 ft | 459 kts | 123° |
| 2026-05-05 14:47 | 50.03915 | 16.17393 | 34793 ft | 460 kts | 123° |
| 2026-05-05 14:47 | 50.00639 | 16.25930 | 34812 ft | 459 kts | 123° |
| 2026-05-05 14:48 | 49.97358 | 16.34440 | 34819 ft | 459 kts | 123° |
| 2026-05-05 14:48 | 49.94071 | 16.42923 | 34824 ft | 458 kts | 123° |
| 2026-05-05 14:49 | 49.90787 | 16.51399 | 34823 ft | 458 kts | 123° |
| 2026-05-05 14:49 | 49.87498 | 16.59874 | 34821 ft | 458 kts | 123° |
| 2026-05-05 14:50 | 49.84231 | 16.68253 | 34825 ft | 457 kts | 123° |
| 2026-05-05 14:50 | 49.80941 | 16.76664 | 34831 ft | 456 kts | 123° |
| 2026-05-05 14:51 | 49.77648 | 16.85048 | 34831 ft | 456 kts | 123° |
| 2026-05-05 14:51 | 49.74346 | 16.93422 | 34834 ft | 456 kts | 123° |
| 2026-05-05 14:52 | 49.71038 | 17.01789 | 34834 ft | 456 kts | 123° |
| 2026-05-05 14:52 | 49.67733 | 17.10138 | 34827 ft | 456 kts | 124° |
| 2026-05-05 14:53 | 49.64415 | 17.18476 | 34831 ft | 456 kts | 124° |
| 2026-05-05 14:53 | 49.61090 | 17.26805 | 34831 ft | 456 kts | 124° |
| 2026-05-05 14:54 | 49.57758 | 17.35136 | 34830 ft | 456 kts | 124° |
| 2026-05-05 14:54 | 49.54416 | 17.43437 | 34819 ft | 456 kts | 123° |
| 2026-05-05 14:55 | 49.51631 | 17.50345 | 34831 ft | 456 kts | 123° |
| 2026-05-05 14:55 | 49.48286 | 17.58644 | 34833 ft | 457 kts | 124° |
| 2026-05-05 14:56 | 49.44929 | 17.66937 | 34842 ft | 457 kts | 124° |
| 2026-05-05 14:56 | 49.41565 | 17.75211 | 34843 ft | 457 kts | 124° |
| 2026-05-05 14:57 | 49.38197 | 17.83483 | 34854 ft | 457 kts | 124° |
| 2026-05-05 14:57 | 49.34822 | 17.91741 | 34855 ft | 457 kts | 124° |
| 2026-05-05 14:58 | 49.31436 | 17.99986 | 34854 ft | 457 kts | 124° |
| 2026-05-05 14:58 | 49.28045 | 18.08223 | 34861 ft | 457 kts | 126° |
| 2026-05-05 14:59 | 49.24702 | 18.16436 | 34855 ft | 459 kts | 121° |
| 2026-05-05 14:59 | 49.21958 | 18.25290 | 34873 ft | 460 kts | 117° |
| 2026-05-05 15:00 | 49.19698 | 18.32732 | 34859 ft | 461 kts | 117° |
| 2026-05-05 15:00 | 49.16553 | 18.43063 | 34873 ft | 461 kts | 116° |
| 2026-05-05 15:01 | 49.13836 | 18.51928 | 34884 ft | 461 kts | 117° |
| 2026-05-05 15:01 | 49.11111 | 18.60771 | 34895 ft | 460 kts | 117° |
| 2026-05-05 15:02 | 49.08380 | 18.69593 | 34902 ft | 460 kts | 117° |
| 2026-05-05 15:02 | 49.05647 | 18.78409 | 34903 ft | 459 kts | 118° |
| 2026-05-05 15:03 | 49.02920 | 18.87215 | 34910 ft | 459 kts | 117° |
| 2026-05-05 15:03 | 49.00184 | 18.95990 | 34912 ft | 459 kts | 118° |
| 2026-05-05 15:04 | 48.97433 | 19.04756 | 34928 ft | 458 kts | 117° |
| 2026-05-05 15:04 | 48.94679 | 19.13515 | 34931 ft | 458 kts | 118° |
| 2026-05-05 15:05 | 48.90550 | 19.26604 | 34923 ft | 458 kts | 119° |
| 2026-05-05 15:06 | 48.87787 | 19.35336 | 34929 ft | 458 kts | 117° |
| 2026-05-05 15:06 | 48.85017 | 19.44055 | 34933 ft | 458 kts | 118° |
| 2026-05-05 15:07 | 48.82233 | 19.52764 | 34941 ft | 458 kts | 118° |
| 2026-05-05 15:07 | 48.79443 | 19.61453 | 34937 ft | 458 kts | 118° |
| 2026-05-05 15:08 | 48.76655 | 19.70122 | 34949 ft | 457 kts | 118° |
| 2026-05-05 15:08 | 48.73864 | 19.78788 | 34958 ft | 457 kts | 117° |
| 2026-05-05 15:09 | 48.71076 | 19.87423 | 34958 ft | 456 kts | 118° |
| 2026-05-05 15:09 | 48.68276 | 19.96053 | 34953 ft | 456 kts | 119° |
| 2026-05-05 15:10 | 48.65470 | 20.04653 | 34948 ft | 455 kts | 117° |
| 2026-05-05 15:10 | 48.62666 | 20.13231 | 34949 ft | 455 kts | 119° |
| 2026-05-05 15:11 | 48.59852 | 20.21808 | 34951 ft | 454 kts | 118° |
| 2026-05-05 15:11 | 48.57020 | 20.30336 | 34948 ft | 454 kts | 118° |
| 2026-05-05 15:12 | 48.54080 | 20.38778 | 34944 ft | 454 kts | 119° |
| 2026-05-05 15:12 | 48.51105 | 20.47162 | 34942 ft | 454 kts | 119° |
| 2026-05-05 15:13 | 48.48135 | 20.55570 | 34940 ft | 454 kts | 120° |
| 2026-05-05 15:13 | 48.45185 | 20.63967 | 34936 ft | 454 kts | 120° |
| 2026-05-05 15:14 | 48.42234 | 20.72363 | 34924 ft | 454 kts | 119° |
| 2026-05-05 15:14 | 48.39262 | 20.80758 | 34914 ft | 455 kts | 119° |
| 2026-05-05 15:15 | 48.36272 | 20.89158 | 34913 ft | 456 kts | 119° |
| 2026-05-05 15:15 | 48.33265 | 20.97568 | 34921 ft | 457 kts | 119° |
| 2026-05-05 15:16 | 48.30250 | 21.05974 | 34932 ft | 457 kts | 119° |
| 2026-05-05 15:16 | 48.27236 | 21.14381 | 34933 ft | 458 kts | 118° |
| 2026-05-05 15:17 | 48.24217 | 21.22790 | 34934 ft | 458 kts | 119° |
| 2026-05-05 15:17 | 48.21150 | 21.31277 | 34938 ft | 458 kts | 119° |
| 2026-05-05 15:18 | 48.18101 | 21.39697 | 34936 ft | 458 kts | 119° |
| 2026-05-05 15:18 | 48.15043 | 21.48156 | 34939 ft | 458 kts | 119° |
| 2026-05-05 15:19 | 48.11965 | 21.56578 | 34959 ft | 458 kts | 119° |
| 2026-05-05 15:19 | 48.08827 | 21.65132 | 34967 ft | 458 kts | 119° |
| 2026-05-05 15:20 | 48.05824 | 21.73277 | 34967 ft | 458 kts | 119° |
| 2026-05-05 15:20 | 48.02765 | 21.81584 | 34965 ft | 457 kts | 119° |
| 2026-05-05 15:21 | 47.99672 | 21.89960 | 34958 ft | 457 kts | 119° |
| 2026-05-05 15:21 | 47.96604 | 21.98245 | 34957 ft | 457 kts | 119° |
| 2026-05-05 15:22 | 47.93523 | 22.06545 | 34953 ft | 457 kts | 119° |
| 2026-05-05 15:22 | 47.90412 | 22.14893 | 34954 ft | 457 kts | 119° |
| 2026-05-05 15:23 | 47.87317 | 22.23161 | 34952 ft | 457 kts | 119° |
| 2026-05-05 15:23 | 47.84734 | 22.30032 | 34955 ft | 456 kts | 119° |
| 2026-05-05 15:24 | 47.81631 | 22.38267 | 34954 ft | 456 kts | 119° |
| 2026-05-05 15:24 | 47.79240 | 22.47034 | 34952 ft | 455 kts | 102° |
| 2026-05-05 15:25 | 47.78299 | 22.56308 | 34958 ft | 454 kts | 96° |
| 2026-05-05 15:25 | 47.77443 | 22.65605 | 34959 ft | 453 kts | 97° |
| 2026-05-05 15:26 | 47.76570 | 22.74895 | 34959 ft | 454 kts | 97° |
| 2026-05-05 15:26 | 47.75687 | 22.84187 | 34962 ft | 454 kts | 97° |
| 2026-05-05 15:27 | 47.74806 | 22.93474 | 34969 ft | 453 kts | 96° |
| 2026-05-05 15:27 | 47.73920 | 23.02797 | 34971 ft | 452 kts | 97° |
| 2026-05-05 15:28 | 47.73025 | 23.12040 | 34969 ft | 452 kts | 97° |
| 2026-05-05 15:28 | 47.72124 | 23.21263 | 34967 ft | 451 kts | 97° |
| 2026-05-05 15:29 | 47.71215 | 23.30468 | 34966 ft | 451 kts | 97° |
| 2026-05-05 15:29 | 47.70306 | 23.39668 | 34971 ft | 450 kts | 97° |
| 2026-05-05 15:30 | 47.69392 | 23.48848 | 34993 ft | 449 kts | 97° |
| 2026-05-05 15:30 | 47.68462 | 23.58075 | 34991 ft | 448 kts | 97° |
| 2026-05-05 15:31 | 47.67530 | 23.67227 | 34987 ft | 448 kts | 97° |
| 2026-05-05 15:31 | 47.66591 | 23.76374 | 34990 ft | 448 kts | 97° |
| 2026-05-05 15:32 | 47.65646 | 23.85501 | 34985 ft | 448 kts | 97° |
| 2026-05-05 15:32 | 47.64694 | 23.94622 | 34982 ft | 447 kts | 97° |
| 2026-05-05 15:33 | 47.63737 | 24.03740 | 34981 ft | 447 kts | 97° |
| 2026-05-05 15:33 | 47.62768 | 24.12902 | 34979 ft | 447 kts | 97° |
| 2026-05-05 15:34 | 47.61811 | 24.21948 | 34989 ft | 447 kts | 97° |
| 2026-05-05 15:34 | 47.60830 | 24.31099 | 34991 ft | 446 kts | 97° |
| 2026-05-05 15:35 | 47.59843 | 24.40178 | 35001 ft | 446 kts | 97° |
| 2026-05-05 15:35 | 47.58849 | 24.49247 | 35002 ft | 446 kts | 97° |
| 2026-05-05 15:36 | 47.57857 | 24.58327 | 35008 ft | 446 kts | 97° |
| 2026-05-05 15:36 | 47.56854 | 24.67386 | 35012 ft | 446 kts | 97° |
| 2026-05-05 15:37 | 47.55840 | 24.76458 | 35009 ft | 446 kts | 97° |
| 2026-05-05 15:37 | 47.54822 | 24.85502 | 35009 ft | 446 kts | 97° |
| 2026-05-05 15:38 | 47.53789 | 24.94617 | 35006 ft | 446 kts | 97° |
| 2026-05-05 15:38 | 47.52754 | 25.03657 | 34954 ft | 446 kts | 98° |
| 2026-05-05 15:38 | 47.52233 | 25.08168 | 34695 ft | 445 kts | 98° |
| 2026-05-05 15:39 | 47.51713 | 25.12680 | 34457 ft | 444 kts | 97° |
| 2026-05-05 15:39 | 47.51200 | 25.17141 | 34217 ft | 444 kts | 98° |
| 2026-05-05 15:39 | 47.50680 | 25.21643 | 33971 ft | 444 kts | 98° |
| 2026-05-05 15:39 | 47.50158 | 25.26132 | 33697 ft | 442 kts | 98° |
| 2026-05-05 15:40 | 47.49635 | 25.30606 | 33422 ft | 440 kts | 98° |
| 2026-05-05 15:40 | 47.49105 | 25.35121 | 33139 ft | 439 kts | 98° |
| 2026-05-05 15:40 | 47.48584 | 25.39555 | 32871 ft | 437 kts | 98° |
| 2026-05-05 15:40 | 47.48066 | 25.43972 | 32603 ft | 435 kts | 98° |
| 2026-05-05 15:41 | 47.47548 | 25.48357 | 32339 ft | 433 kts | 98° |
| 2026-05-05 15:41 | 47.47027 | 25.52734 | 32067 ft | 431 kts | 98° |
| 2026-05-05 15:41 | 47.46508 | 25.57087 | 31818 ft | 429 kts | 98° |
| 2026-05-05 15:41 | 47.45983 | 25.61492 | 31551 ft | 428 kts | 98° |
| 2026-05-05 15:42 | 47.45465 | 25.65810 | 31297 ft | 426 kts | 98° |
| 2026-05-05 15:42 | 47.44948 | 25.70099 | 31046 ft | 424 kts | 98° |
| 2026-05-05 15:42 | 47.44428 | 25.74393 | 30794 ft | 422 kts | 98° |
| 2026-05-05 15:42 | 47.43912 | 25.78645 | 30549 ft | 421 kts | 98° |
| 2026-05-05 15:43 | 47.43397 | 25.82891 | 30309 ft | 419 kts | 97° |
| 2026-05-05 15:43 | 47.42885 | 25.87101 | 30060 ft | 416 kts | 97° |
| 2026-05-05 15:43 | 47.42372 | 25.91295 | 29782 ft | 414 kts | 97° |
| 2026-05-05 15:43 | 47.41857 | 25.95461 | 29505 ft | 412 kts | 98° |
| 2026-05-05 15:44 | 47.41340 | 25.99614 | 29220 ft | 410 kts | 98° |
| 2026-05-05 15:44 | 47.40826 | 26.03737 | 28937 ft | 407 kts | 98° |
| 2026-05-05 15:44 | 47.40318 | 26.07842 | 28662 ft | 405 kts | 98° |
| 2026-05-05 15:44 | 47.39812 | 26.11925 | 28388 ft | 404 kts | 98° |
| 2026-05-05 15:45 | 47.39308 | 26.15987 | 28113 ft | 402 kts | 98° |
| 2026-05-05 15:45 | 47.38802 | 26.20034 | 27845 ft | 400 kts | 98° |
| 2026-05-05 15:45 | 47.38296 | 26.24060 | 27589 ft | 398 kts | 98° |
| 2026-05-05 15:45 | 47.37793 | 26.28055 | 27329 ft | 395 kts | 98° |
| 2026-05-05 15:46 | 47.37291 | 26.32032 | 27063 ft | 393 kts | 98° |
| 2026-05-05 15:46 | 47.36791 | 26.35985 | 26805 ft | 391 kts | 98° |
| 2026-05-05 15:46 | 47.36292 | 26.39920 | 26547 ft | 389 kts | 98° |
| 2026-05-05 15:46 | 47.35796 | 26.43834 | 26289 ft | 388 kts | 98° |
| 2026-05-05 15:47 | 47.35299 | 26.47734 | 26042 ft | 386 kts | 99° |
| 2026-05-05 15:47 | 47.34969 | 26.50311 | 25872 ft | 385 kts | 99° |
| 2026-05-05 15:47 | 47.34304 | 26.55476 | 25540 ft | 382 kts | 99° |
| 2026-05-05 15:47 | 47.33809 | 26.59317 | 25292 ft | 381 kts | 99° |
| 2026-05-05 15:48 | 47.33316 | 26.63139 | 25048 ft | 379 kts | 99° |
| 2026-05-05 15:48 | 47.32823 | 26.66945 | 24817 ft | 377 kts | 99° |
| 2026-05-05 15:48 | 47.32332 | 26.70719 | 24577 ft | 374 kts | 99° |
| 2026-05-05 15:48 | 47.31843 | 26.74481 | 24340 ft | 373 kts | 99° |
| 2026-05-05 15:49 | 47.31354 | 26.78217 | 24107 ft | 371 kts | 99° |
| 2026-05-05 15:49 | 47.30861 | 26.81950 | 23876 ft | 369 kts | 99° |
| 2026-05-05 15:49 | 47.30365 | 26.85706 | 23641 ft | 368 kts | 99° |
| 2026-05-05 15:49 | 47.29887 | 26.89347 | 23392 ft | 366 kts | 99° |
| 2026-05-05 15:50 | 47.29401 | 26.93029 | 23113 ft | 365 kts | 99° |
| 2026-05-05 15:50 | 47.28918 | 26.96687 | 22839 ft | 363 kts | 99° |
| 2026-05-05 15:50 | 47.28593 | 26.99144 | 22658 ft | 362 kts | 99° |
| 2026-05-05 15:50 | 47.28112 | 27.02783 | 22391 ft | 361 kts | 99° |
| 2026-05-05 15:51 | 47.27632 | 27.06394 | 22133 ft | 359 kts | 99° |
| 2026-05-05 15:51 | 47.27153 | 27.09996 | 21864 ft | 357 kts | 98° |
| 2026-05-05 15:51 | 47.26675 | 27.13576 | 21604 ft | 355 kts | 99° |
| 2026-05-05 15:51 | 47.26198 | 27.17133 | 21344 ft | 354 kts | 99° |
| 2026-05-05 15:52 | 47.25721 | 27.20684 | 21088 ft | 353 kts | 99° |
| 2026-05-05 15:52 | 47.25245 | 27.24217 | 20834 ft | 351 kts | 99° |
| 2026-05-05 15:52 | 47.24768 | 27.27746 | 20575 ft | 350 kts | 99° |
| 2026-05-05 15:52 | 47.24295 | 27.31241 | 20327 ft | 349 kts | 99° |
| 2026-05-05 15:53 | 47.23819 | 27.34741 | 20084 ft | 347 kts | 98° |
| 2026-05-05 15:53 | 47.23344 | 27.38221 | 19846 ft | 346 kts | 99° |
| 2026-05-05 15:53 | 47.22868 | 27.41689 | 19594 ft | 345 kts | 99° |
| 2026-05-05 15:53 | 47.22391 | 27.45143 | 19346 ft | 344 kts | 99° |
| 2026-05-05 15:54 | 47.21914 | 27.48587 | 19122 ft | 343 kts | 98° |
| 2026-05-05 15:54 | 47.21443 | 27.52017 | 18884 ft | 342 kts | 98° |
| 2026-05-05 15:54 | 47.20976 | 27.55416 | 18553 ft | 337 kts | 98° |
| 2026-05-05 15:54 | 47.20514 | 27.58785 | 18124 ft | 336 kts | 98° |
| 2026-05-05 15:55 | 47.20050 | 27.62144 | 17675 ft | 333 kts | 98° |
| 2026-05-05 15:55 | 47.19587 | 27.65475 | 17252 ft | 331 kts | 98° |
| 2026-05-05 15:55 | 47.19127 | 27.68771 | 16839 ft | 328 kts | 98° |
| 2026-05-05 15:55 | 47.18672 | 27.72042 | 16424 ft | 326 kts | 98° |
| 2026-05-05 15:56 | 47.18224 | 27.75305 | 16014 ft | 324 kts | 98° |
| 2026-05-05 15:56 | 47.17774 | 27.78538 | 15595 ft | 323 kts | 98° |
| 2026-05-05 15:56 | 47.17322 | 27.81756 | 15184 ft | 321 kts | 98° |
| 2026-05-05 15:56 | 47.16837 | 27.84962 | 14757 ft | 322 kts | 103° |
| 2026-05-05 15:57 | 47.16048 | 27.88048 | 14344 ft | 323 kts | 108° |
| 2026-05-05 15:57 | 47.15202 | 27.91105 | 13911 ft | 323 kts | 108° |
| 2026-05-05 15:57 | 47.14358 | 27.94164 | 13457 ft | 322 kts | 108° |
| 2026-05-05 15:57 | 47.13521 | 27.97206 | 13023 ft | 320 kts | 108° |
| 2026-05-05 15:58 | 47.12688 | 28.00229 | 12604 ft | 318 kts | 108° |
| 2026-05-05 15:58 | 47.11858 | 28.03232 | 12191 ft | 317 kts | 108° |
| 2026-05-05 15:58 | 47.11030 | 28.06222 | 11780 ft | 315 kts | 109° |
| 2026-05-05 15:58 | 47.10206 | 28.09196 | 11370 ft | 314 kts | 109° |
| 2026-05-05 15:59 | 47.09382 | 28.12162 | 10955 ft | 313 kts | 109° |
| 2026-05-05 15:59 | 47.08558 | 28.15123 | 10542 ft | 313 kts | 109° |
| 2026-05-05 15:59 | 47.07736 | 28.18075 | 10121 ft | 312 kts | 109° |
| 2026-05-05 15:59 | 47.06907 | 28.21053 | 9780 ft | 309 kts | 109° |
| 2026-05-05 16:00 | 47.06118 | 28.23882 | 9655 ft | 298 kts | 109° |
| 2026-05-05 16:00 | 47.05336 | 28.26679 | 9515 ft | 285 kts | 109° |
| 2026-05-05 16:00 | 47.04607 | 28.29273 | 9378 ft | 267 kts | 109° |
| 2026-05-05 16:00 | 47.03928 | 28.31686 | 9173 ft | 253 kts | 109° |
| 2026-05-05 16:01 | 47.03259 | 28.34076 | 8755 ft | 248 kts | 109° |
| 2026-05-05 16:01 | 47.02604 | 28.36416 | 8308 ft | 247 kts | 109° |
| 2026-05-05 16:01 | 47.01934 | 28.38719 | 7824 ft | 246 kts | 115° |
| 2026-05-05 16:01 | 47.01055 | 28.40864 | 7346 ft | 245 kts | 120° |
| 2026-05-05 16:02 | 47.00158 | 28.42984 | 6891 ft | 245 kts | 119° |
| 2026-05-05 16:02 | 46.99249 | 28.45131 | 6307 ft | 249 kts | 120° |
| 2026-05-05 16:02 | 46.98355 | 28.47247 | 5955 ft | 242 kts | 120° |
| 2026-05-05 16:02 | 46.97464 | 28.49357 | 5340 ft | 246 kts | 121° |
| 2026-05-05 16:03 | 46.96562 | 28.51491 | 4867 ft | 244 kts | 121° |
| 2026-05-05 16:03 | 46.95689 | 28.53551 | 4669 ft | 230 kts | 122° |
| 2026-05-05 16:03 | 46.94876 | 28.55470 | 4555 ft | 214 kts | 122° |
| 2026-05-05 16:03 | 46.94111 | 28.57275 | 4460 ft | 203 kts | 122° |
| 2026-05-05 16:04 | 46.93397 | 28.58960 | 4342 ft | 186 kts | 122° |
| 2026-05-05 16:04 | 46.92727 | 28.60541 | 4298 ft | 181 kts | 122° |
| 2026-05-05 16:04 | 46.92225 | 28.62218 | 4177 ft | 177 kts | 103° |
| 2026-05-05 16:04 | 46.92141 | 28.63980 | 3932 ft | 172 kts | 89° |
| 2026-05-05 16:05 | 46.92182 | 28.65727 | 3704 ft | 171 kts | 88° |
| 2026-05-05 16:05 | 46.92222 | 28.67458 | 3487 ft | 170 kts | 89° |
| 2026-05-05 16:05 | 46.92261 | 28.69185 | 3261 ft | 170 kts | 89° |
| 2026-05-05 16:05 | 46.92300 | 28.70914 | 3041 ft | 169 kts | 90° |
| 2026-05-05 16:06 | 46.92339 | 28.72654 | 2814 ft | 170 kts | 90° |
| 2026-05-05 16:06 | 46.92378 | 28.74363 | 2605 ft | 169 kts | 89° |
| 2026-05-05 16:06 | 46.92416 | 28.76078 | 2380 ft | 168 kts | 91° |
| 2026-05-05 16:06 | 46.92453 | 28.77785 | 2150 ft | 168 kts | 90° |
| 2026-05-05 16:07 | 46.92490 | 28.79431 | 1930 ft | 153 kts | 90° |
| 2026-05-05 16:07 | 46.92524 | 28.80975 | 1727 ft | 147 kts | 90° |
| 2026-05-05 16:07 | 46.92555 | 28.82457 | 1538 ft | 145 kts | 90° |
| 2026-05-05 16:07 | 46.92587 | 28.83919 | 1353 ft | 143 kts | 91° |
| 2026-05-05 16:08 | 46.92617 | 28.85373 | 1184 ft | 141 kts | 91° |
| 2026-05-05 16:08 | 46.92649 | 28.86807 | 949 ft | 142 kts | 89° |
| 2026-05-05 16:08 | 46.92693 | 28.88241 | 783 ft | 139 kts | 91° |
| 2026-05-05 16:08 | 46.92718 | 28.89691 | 617 ft | 142 kts | 91° |
| 2026-05-05 16:09 | 46.92747 | 28.91118 | 412 ft | 140 kts | 92° |
| 2026-05-05 16:09 | 46.92763 | 28.92367 | 371 ft | 101 kts | 86° |
| 2026-05-05 16:09 | 46.92779 | 28.93163 | 349 ft | 57 kts | 94° |
| 2026-05-05 16:09 | 46.92795 | 28.93401 | 337 ft | 7 kts | 29° |
| 2026-05-05 16:10 | 46.92854 | 28.93410 | 337 ft | 9 kts | 1° |
| 2026-05-05 16:10 | 46.92925 | 28.93409 | 338 ft | 10 kts | 0° |
| 2026-05-05 16:10 | 46.92998 | 28.93412 | 343 ft | 11 kts | 6° |
| 2026-05-05 16:10 | 46.93055 | 28.93423 | 344 ft | 1 kts | 6° |
| 2026-05-05 16:11 | 46.93062 | 28.93424 | 345 ft | 1 kts | 6° |
| 2026-05-05 16:11 | 46.93069 | 28.93425 | 352 ft | 1 kts | 6° |
| 2026-05-05 16:12 | 46.93085 | 28.93428 | 352 ft | 6 kts | 7° |
| 2026-05-05 16:12 | 46.93201 | 28.93455 | 355 ft | 14 kts | 6° |
| 2026-05-05 16:13 | 46.93415 | 28.93457 | 346 ft | 9 kts | 314° |
| 2026-05-05 16:13 | 46.93434 | 28.93346 | 339 ft | 11 kts | 275° |
| 2026-05-05 16:13 | 46.93431 | 28.93251 | 336 ft | 9 kts | 234° |
| 2026-05-05 16:14 | 46.93400 | 28.93237 | 336 ft | 0 kts | 180° |